Time;durP1;ratioP1;P1;durP2;ratioP2;P2;SDS_P1;SDS_P2;PMS_P1;PMS_P2;Temp;Humidity;BMP_temperature;BMP_pressure;BME280_temperature;BME280_humidity;BME280_pressure;Samples;Min_cycle;Max_cycle;Signal;HPM_P1;HPM_P2
2023/07/10 00:01:40;;;;;;;5.72;4.18;;;;;;;;;;5052873;28;20202;-65
2023/07/10 00:04:20;;;;;;;4.53;3.92;;;;;;;;;;5061876;28;20205;-65
2023/07/10 00:06:48;;;;;;;8.15;4.70;;;;;;;;;;5048152;28;20595;-64
2023/07/10 00:09:15;;;;;;;6.22;3.95;;;;;;;;;;5056084;28;20271;-64
2023/07/10 00:11:43;;;;;;;6.53;4.40;;;;;;;;;;5057329;28;20209;-64
2023/07/10 00:14:18;;;;;;;6.75;3.90;;;;;;;;;;5047714;28;20205;-64
2023/07/10 00:16:45;;;;;;;6.18;4.38;;;;;;;;;;5046872;28;20262;-63
2023/07/10 00:19:14;;;;;;;6.35;4.40;;;;;;;;;;5044728;28;20595;-65
2023/07/10 00:21:41;;;;;;;7.18;4.57;;;;;;;;;;5056492;28;20285;-65
2023/07/10 00:24:09;;;;;;;7.95;4.43;;;;;;;;;;5054327;28;20202;-65
2023/07/10 00:26:37;;;;;;;5.93;4.10;;;;;;;;;;5055083;28;20237;-64
2023/07/10 00:29:25;;;;;;;5.90;4.53;;;;;;;;;;5040061;28;20214;-65
2023/07/10 00:31:52;;;;;;;5.75;4.05;;;;;;;;;;5051519;28;20198;-65
2023/07/10 00:34:25;;;;;;;7.40;4.55;;;;;;;;;;5056381;28;20212;-64
2023/07/10 00:36:53;;;;;;;5.53;4.28;;;;;;;;;;5040973;28;20235;-65
2023/07/10 00:39:20;;;;;;;6.50;4.45;;;;;;;;;;5060019;28;20263;-64
2023/07/10 00:41:54;;;;;;;4.85;4.15;;;;;;;;;;5059057;28;20205;-65
2023/07/10 00:44:23;;;;;;;7.80;4.30;;;;;;;;;;5049035;28;20226;-65
2023/07/10 00:46:53;;;;;;;5.43;4.47;;;;;;;;;;5048247;28;20230;-64
2023/07/10 00:49:36;;;;;;;5.20;4.50;;;;;;;;;;5049802;28;20694;-65
2023/07/10 00:52:10;;;;;;;6.82;4.00;;;;;;;;;;5053250;28;20202;-64
2023/07/10 00:54:43;;;;;;;6.40;4.45;;;;;;;;;;5054032;28;20669;-64
2023/07/10 00:57:13;;;;;;;7.78;4.82;;;;;;;;;;5040978;28;20766;-64
2023/07/10 00:59:42;;;;;;;6.47;4.20;;;;;;;;;;5041640;28;20750;-64
2023/07/10 01:02:09;;;;;;;6.80;4.18;;;;;;;;;;5059927;28;20206;-65
2023/07/10 01:04:41;;;;;;;7.68;4.90;;;;;;;;;;5046471;28;20207;-64
2023/07/10 01:07:10;;;;;;;6.63;4.40;;;;;;;;;;5047745;28;20202;-65
2023/07/10 01:09:39;;;;;;;6.22;4.25;;;;;;;;;;5053282;28;20202;-65
2023/07/10 01:12:06;;;;;;;7.68;3.95;;;;;;;;;;5043298;28;20207;-64
2023/07/10 01:14:35;;;;;;;6.82;4.20;;;;;;;;;;5055285;28;20212;-65
2023/07/10 01:17:03;;;;;;;5.20;4.07;;;;;;;;;;5040296;28;20237;-64
2023/07/10 01:19:32;;;;;;;4.97;4.05;;;;;;;;;;5047684;28;20598;-64
2023/07/10 01:22:00;;;;;;;6.22;4.45;;;;;;;;;;5051098;28;20258;-65
2023/07/10 01:24:28;;;;;;;4.47;3.60;;;;;;;;;;5053293;28;20259;-64
2023/07/10 01:26:56;;;;;;;5.28;3.85;;;;;;;;;;5057618;28;20254;-65
2023/07/10 01:29:25;;;;;;;5.47;4.07;;;;;;;;;;5046196;28;20609;-64
2023/07/10 01:31:54;;;;;;;6.82;3.80;;;;;;;;;;5055016;28;20206;-65
2023/07/10 01:34:23;;;;;;;6.88;4.53;;;;;;;;;;5063703;28;20213;-64
2023/07/10 01:36:50;;;;;;;5.00;3.42;;;;;;;;;;5049518;28;20256;-65
2023/07/10 01:39:27;;;;;;;3.95;3.60;;;;;;;;;;5048358;28;20214;-65
2023/07/10 01:41:54;;;;;;;5.28;3.70;;;;;;;;;;5042068;28;20195;-64
2023/07/10 01:44:29;;;;;;;7.05;4.18;;;;;;;;;;5048653;28;20232;-65
2023/07/10 01:46:57;;;;;;;5.60;3.95;;;;;;;;;;5055813;28;20303;-65
2023/07/10 01:49:32;;;;;;;3.92;3.50;;;;;;;;;;5061118;28;20228;-64
2023/07/10 01:52:02;;;;;;;5.78;3.80;;;;;;;;;;5058729;28;20210;-64
2023/07/10 01:54:31;;;;;;;4.68;3.45;;;;;;;;;;5038241;28;20617;-64
2023/07/10 01:56:58;;;;;;;5.28;3.42;;;;;;;;;;5051205;28;20700;-63
2023/07/10 01:59:26;;;;;;;5.25;3.42;;;;;;;;;;5047091;28;20194;-64
2023/07/10 02:01:58;;;;;;;6.10;3.92;;;;;;;;;;5060986;28;20206;-65
2023/07/10 02:04:25;;;;;;;5.25;4.30;;;;;;;;;;5055887;28;20199;-64
2023/07/10 02:06:56;;;;;;;6.85;4.32;;;;;;;;;;5053253;28;20222;-65
2023/07/10 02:09:23;;;;;;;5.22;4.15;;;;;;;;;;5058117;28;20202;-64
2023/07/10 02:11:52;;;;;;;4.20;3.80;;;;;;;;;;5048332;28;20202;-65
2023/07/10 02:14:20;;;;;;;5.22;3.85;;;;;;;;;;5038782;28;20271;-65
2023/07/10 02:16:48;;;;;;;5.53;3.53;;;;;;;;;;5045744;28;20684;-64
2023/07/10 02:19:16;;;;;;;6.22;3.42;;;;;;;;;;5039435;28;20234;-65
2023/07/10 02:21:44;;;;;;;6.28;3.80;;;;;;;;;;5035453;28;20694;-66
2023/07/10 02:24:11;;;;;;;6.15;3.30;;;;;;;;;;5044433;28;20206;-64
2023/07/10 02:26:38;;;;;;;4.60;3.75;;;;;;;;;;5033713;28;20237;-66
2023/07/10 02:29:06;;;;;;;4.53;3.40;;;;;;;;;;5061573;28;20220;-65
2023/07/10 02:31:33;;;;;;;6.63;3.75;;;;;;;;;;5070177;28;20209;-65
2023/07/10 02:34:00;;;;;;;6.60;3.22;;;;;;;;;;5042555;28;20213;-63
2023/07/10 02:36:29;;;;;;;4.97;3.72;;;;;;;;;;5047832;28;20585;-63
2023/07/10 02:38:56;;;;;;;7.90;3.78;;;;;;;;;;5048820;28;20751;-64
2023/07/10 02:41:24;;;;;;;5.68;3.72;;;;;;;;;;5036658;28;20199;-63
2023/07/10 02:43:51;;;;;;;5.95;4.32;;;;;;;;;;5044535;28;20728;-65
2023/07/10 02:46:19;;;;;;;7.57;4.13;;;;;;;;;;5051888;28;20701;-64
2023/07/10 02:48:46;;;;;;;7.32;3.92;;;;;;;;;;5051413;28;20248;-64
2023/07/10 02:51:13;;;;;;;4.40;3.75;;;;;;;;;;5058224;28;20248;-64
2023/07/10 02:53:41;;;;;;;7.93;3.83;;;;;;;;;;5055058;28;20210;-64
2023/07/10 02:56:08;;;;;;;6.05;4.03;;;;;;;;;;5061938;28;20233;-64
2023/07/10 02:58:35;;;;;;;7.75;4.10;;;;;;;;;;5037117;28;20232;-65
2023/07/10 03:01:03;;;;;;;5.68;3.70;;;;;;;;;;5041586;28;20201;-64
2023/07/10 03:03:31;;;;;;;4.63;3.53;;;;;;;;;;5042099;28;20210;-64
2023/07/10 03:06:02;;;;;;;5.38;3.85;;;;;;;;;;5044688;28;20226;-64
2023/07/10 03:08:30;;;;;;;5.88;3.75;;;;;;;;;;5036833;28;20198;-64
2023/07/10 03:11:08;;;;;;;4.88;3.90;;;;;;;;;;5048025;28;20202;-65
2023/07/10 03:13:36;;;;;;;4.88;3.85;;;;;;;;;;5043225;28;20209;-65
2023/07/10 03:16:05;;;;;;;5.72;3.63;;;;;;;;;;5039743;28;20726;-63
2023/07/10 03:18:33;;;;;;;5.47;3.40;;;;;;;;;;5042406;28;20202;-64
2023/07/10 03:21:00;;;;;;;4.35;3.20;;;;;;;;;;5053512;28;20265;-67
2023/07/10 03:23:27;;;;;;;5.50;3.50;;;;;;;;;;5042693;28;20218;-65
2023/07/10 03:25:55;;;;;;;7.10;3.60;;;;;;;;;;5040927;28;20713;-64
2023/07/10 03:28:22;;;;;;;5.30;3.28;;;;;;;;;;5037272;28;20610;-64
2023/07/10 03:30:50;;;;;;;5.80;3.78;;;;;;;;;;5039269;28;20202;-64
2023/07/10 03:33:19;;;;;;;5.63;3.85;;;;;;;;;;5040535;28;20261;-64
2023/07/10 03:35:48;;;;;;;4.60;3.67;;;;;;;;;;5034530;28;20225;-65
2023/07/10 03:38:16;;;;;;;6.13;3.40;;;;;;;;;;5034731;28;20203;-64
2023/07/10 03:40:51;;;;;;;5.30;3.20;;;;;;;;;;5039284;28;20688;-64
2023/07/10 03:43:18;;;;;;;4.38;3.40;;;;;;;;;;5037108;28;20266;-63
2023/07/10 03:45:46;;;;;;;5.40;3.30;;;;;;;;;;5034579;28;20596;-64
2023/07/10 03:48:13;;;;;;;5.93;3.28;;;;;;;;;;5033233;28;20209;-64
2023/07/10 03:50:41;;;;;;;5.32;3.50;;;;;;;;;;5032303;28;20214;-64
2023/07/10 03:53:08;;;;;;;4.68;3.15;;;;;;;;;;5046674;28;20688;-64
2023/07/10 03:55:36;;;;;;;5.28;3.53;;;;;;;;;;5035153;28;20272;-63
2023/07/10 03:58:16;;;;;;;6.95;3.67;;;;;;;;;;5041757;28;20202;-63
2023/07/10 04:00:43;;;;;;;5.53;3.63;;;;;;;;;;5043602;28;20190;-63
2023/07/10 04:03:10;;;;;;;6.13;4.00;;;;;;;;;;5040597;28;20679;-64
2023/07/10 04:05:38;;;;;;;3.85;3.42;;;;;;;;;;5040227;28;20232;-64
2023/07/10 04:08:05;;;;;;;6.68;3.55;;;;;;;;;;5057639;28;20224;-63
2023/07/10 04:10:34;;;;;;;4.10;3.58;;;;;;;;;;5042612;28;20635;-64
2023/07/10 04:13:01;;;;;;;7.18;4.15;;;;;;;;;;5049674;28;20209;-64
2023/07/10 04:15:28;;;;;;;4.68;3.38;;;;;;;;;;5047752;28;20868;-65
2023/07/10 04:17:56;;;;;;;5.28;3.83;;;;;;;;;;5047487;28;20202;-64
2023/07/10 04:20:23;;;;;;;8.35;3.97;;;;;;;;;;5056497;28;20207;-64
2023/07/10 04:22:50;;;;;;;7.00;3.70;;;;;;;;;;5035310;28;20208;-64
2023/07/10 04:25:19;;;;;;;6.05;3.72;;;;;;;;;;5030355;28;20253;-66
2023/07/10 04:27:46;;;;;;;6.35;3.78;;;;;;;;;;5029986;28;20264;-62
2023/07/10 04:30:14;;;;;;;10.52;4.97;;;;;;;;;;5031226;28;20594;-63
2023/07/10 04:32:41;;;;;;;6.00;4.20;;;;;;;;;;5034361;28;20680;-64
2023/07/10 04:35:09;;;;;;;12.93;4.65;;;;;;;;;;5033499;28;20229;-65
2023/07/10 04:37:37;;;;;;;5.60;3.95;;;;;;;;;;5034779;28;20219;-64
2023/07/10 04:40:05;;;;;;;6.38;4.45;;;;;;;;;;5035415;28;20198;-66
2023/07/10 04:42:32;;;;;;;6.45;4.55;;;;;;;;;;5047077;28;20642;-62
2023/07/10 04:44:59;;;;;;;7.15;4.72;;;;;;;;;;5033738;28;20281;-67
2023/07/10 04:47:26;;;;;;;7.03;4.28;;;;;;;;;;5035141;28;20242;-67
2023/07/10 04:49:54;;;;;;;5.18;4.00;;;;;;;;;;5060720;28;20585;-66
2023/07/10 04:52:23;;;;;;;8.75;4.68;;;;;;;;;;5037552;28;20211;-63
2023/07/10 04:54:51;;;;;;;5.97;4.07;;;;;;;;;;5045351;28;20221;-66
2023/07/10 04:57:18;;;;;;;6.97;3.90;;;;;;;;;;5039730;28;20272;-66
2023/07/10 04:59:46;;;;;;;8.38;4.53;;;;;;;;;;5049431;28;20236;-66
2023/07/10 05:02:13;;;;;;;7.28;4.40;;;;;;;;;;5047341;28;20198;-68
2023/07/10 05:04:41;;;;;;;5.82;4.57;;;;;;;;;;5043420;28;20222;-65
2023/07/10 05:07:08;;;;;;;7.15;4.35;;;;;;;;;;5040171;28;20225;-65
2023/07/10 05:09:36;;;;;;;6.60;4.40;;;;;;;;;;5038044;28;20212;-63
2023/07/10 05:12:03;;;;;;;8.73;4.60;;;;;;;;;;5039058;28;20202;-67
2023/07/10 05:14:31;;;;;;;5.30;4.30;;;;;;;;;;5048959;28;20199;-64
2023/07/10 05:16:58;;;;;;;7.57;4.80;;;;;;;;;;5033599;28;20223;-66
2023/07/10 05:19:26;;;;;;;8.40;5.10;;;;;;;;;;5040759;28;20210;-65
2023/07/10 05:21:54;;;;;;;7.78;4.72;;;;;;;;;;5043466;28;20209;-65
2023/07/10 05:24:22;;;;;;;8.07;5.13;;;;;;;;;;5046021;28;20217;-65
2023/07/10 05:26:49;;;;;;;6.88;4.95;;;;;;;;;;5042029;28;20242;-65
2023/07/10 05:29:16;;;;;;;11.68;5.00;;;;;;;;;;5040885;28;20285;-66
2023/07/10 05:31:44;;;;;;;7.97;5.00;;;;;;;;;;5048245;28;20202;-63
2023/07/10 05:34:11;;;;;;;8.50;5.13;;;;;;;;;;5039472;28;20213;-64
2023/07/10 05:36:38;;;;;;;5.50;4.97;;;;;;;;;;5036880;28;20230;-65
2023/07/10 05:39:06;;;;;;;7.55;5.60;;;;;;;;;;5040927;28;20202;-65
2023/07/10 05:41:34;;;;;;;6.80;5.32;;;;;;;;;;5035180;28;20205;-66
2023/07/10 05:44:02;;;;;;;6.80;5.32;;;;;;;;;;5036762;28;20743;-66
2023/07/10 05:46:29;;;;;;;7.38;5.18;;;;;;;;;;5035602;28;20225;-64
2023/07/10 05:48:56;;;;;;;6.38;5.45;;;;;;;;;;5033224;28;20215;-63
2023/07/10 05:51:24;;;;;;;11.38;5.95;;;;;;;;;;5050745;28;20679;-65
2023/07/10 05:53:52;;;;;;;10.60;5.85;;;;;;;;;;5038612;28;20259;-63
2023/07/10 05:56:20;;;;;;;11.23;6.28;;;;;;;;;;5035601;28;20269;-65
2023/07/10 05:58:47;;;;;;;8.70;6.45;;;;;;;;;;5034590;28;20203;-63
2023/07/10 06:01:15;;;;;;;10.82;6.72;;;;;;;;;;5040026;28;20206;-67
2023/07/10 06:03:42;;;;;;;12.30;7.10;;;;;;;;;;5036646;28;20208;-67
2023/07/10 06:06:09;;;;;;;9.38;6.97;;;;;;;;;;5038322;28;20277;-66
2023/07/10 06:08:37;;;;;;;9.43;6.45;;;;;;;;;;5039788;28;20276;-66
2023/07/10 06:11:05;;;;;;;8.80;6.85;;;;;;;;;;5031494;28;20205;-66
2023/07/10 06:13:33;;;;;;;10.10;6.65;;;;;;;;;;5043908;28;20248;-63
2023/07/10 06:16:00;;;;;;;7.10;6.22;;;;;;;;;;5037426;28;20245;-66
2023/07/10 06:18:28;;;;;;;9.20;6.10;;;;;;;;;;5030896;28;20213;-66
2023/07/10 06:20:56;;;;;;;8.75;6.10;;;;;;;;;;5036522;28;20745;-67
2023/07/10 06:23:24;;;;;;;10.13;6.43;;;;;;;;;;5043577;28;20338;-66
2023/07/10 06:25:52;;;;;;;8.93;6.05;;;;;;;;;;5043756;28;20225;-66
2023/07/10 06:28:19;;;;;;;6.93;6.00;;;;;;;;;;5030826;28;20203;-66
2023/07/10 06:30:54;;;;;;;7.97;5.40;;;;;;;;;;5038505;28;20221;-64
2023/07/10 06:33:21;;;;;;;7.53;6.22;;;;;;;;;;5032451;28;20202;-63
2023/07/10 06:35:49;;;;;;;7.43;5.70;;;;;;;;;;5037929;28;20231;-66
2023/07/10 06:38:17;;;;;;;8.20;5.72;;;;;;;;;;5045039;28;20392;-62
2023/07/10 06:40:44;;;;;;;6.25;5.65;;;;;;;;;;5043736;28;20195;-64
2023/07/10 06:43:12;;;;;;;7.18;5.72;;;;;;;;;;5044888;28;20297;-65
2023/07/10 06:45:39;;;;;;;8.70;5.35;;;;;;;;;;5037642;28;20955;-67
2023/07/10 06:48:07;;;;;;;7.47;5.63;;;;;;;;;;5048657;28;20206;-66
2023/07/10 06:50:35;;;;;;;8.73;5.72;;;;;;;;;;5035068;28;20230;-64
2023/07/10 06:53:02;;;;;;;8.00;5.90;;;;;;;;;;5048308;28;20274;-64
2023/07/10 06:55:56;;;;;;;9.00;6.53;;;;;;;;;;5048447;28;20352;-65
2023/07/10 06:58:24;;;;;;;7.63;5.65;;;;;;;;;;5040658;28;20226;-67
2023/07/10 07:00:52;;;;;;;10.57;5.90;;;;;;;;;;5047577;28;20206;-67
2023/07/10 07:03:20;;;;;;;6.72;5.32;;;;;;;;;;5040074;28;20206;-64
2023/07/10 07:05:48;;;;;;;5.82;5.15;;;;;;;;;;5026882;28;20652;-63
2023/07/10 07:08:17;;;;;;;7.93;6.00;;;;;;;;;;5028470;28;20247;-66
2023/07/10 07:10:45;;;;;;;12.30;5.75;;;;;;;;;;5027088;28;20418;-66
2023/07/10 07:13:13;;;;;;;8.50;5.60;;;;;;;;;;5027906;28;20683;-66
2023/07/10 07:15:41;;;;;;;6.28;5.60;;;;;;;;;;5031305;28;20242;-66
2023/07/10 07:18:08;;;;;;;8.65;5.97;;;;;;;;;;5035918;28;20605;-63
2023/07/10 07:20:35;;;;;;;7.20;5.85;;;;;;;;;;5034661;28;20198;-65
2023/07/10 07:23:03;;;;;;;7.35;5.90;;;;;;;;;;5035619;28;20222;-68
2023/07/10 07:25:30;;;;;;;10.15;6.00;;;;;;;;;;5038593;28;20226;-66
2023/07/10 07:28:03;;;;;;;8.77;5.78;;;;;;;;;;5032613;28;20255;-67
2023/07/10 07:30:31;;;;;;;9.48;5.70;;;;;;;;;;5031397;28;20203;-67
2023/07/10 07:32:59;;;;;;;10.40;5.63;;;;;;;;;;5038424;28;20223;-68
2023/07/10 07:35:26;;;;;;;7.25;5.68;;;;;;;;;;5035407;28;20229;-67
2023/07/10 07:37:53;;;;;;;7.57;5.25;;;;;;;;;;5038273;28;20710;-67
2023/07/10 07:40:21;;;;;;;6.40;5.20;;;;;;;;;;5034213;28;20198;-66
2023/07/10 07:42:48;;;;;;;6.25;4.78;;;;;;;;;;5039831;28;20214;-65
2023/07/10 07:45:15;;;;;;;6.30;4.20;;;;;;;;;;5036776;28;20227;-68
2023/07/10 07:47:43;;;;;;;6.47;4.18;;;;;;;;;;5032493;28;20225;-64
2023/07/10 07:50:11;;;;;;;6.60;4.10;;;;;;;;;;5028959;28;20206;-65
2023/07/10 07:52:38;;;;;;;4.40;4.00;;;;;;;;;;5036674;28;20202;-67
2023/07/10 07:55:06;;;;;;;6.30;3.95;;;;;;;;;;5038081;28;20231;-66
2023/07/10 07:57:33;;;;;;;5.90;4.53;;;;;;;;;;5033502;28;20245;-67
2023/07/10 08:00:02;;;;;;;6.40;4.32;;;;;;;;;;5040845;28;20214;-67
2023/07/10 08:02:29;;;;;;;7.30;4.13;;;;;;;;;;5046189;28;20293;-65
2023/07/10 08:04:59;;;;;;;4.82;4.32;;;;;;;;;;5039716;28;20208;-67
2023/07/10 08:07:27;;;;;;;6.60;4.63;;;;;;;;;;5047916;28;20206;-64
2023/07/10 08:09:54;;;;;;;6.32;4.03;;;;;;;;;;5040345;28;20259;-67
2023/07/10 08:12:21;;;;;;;6.60;4.45;;;;;;;;;;5031075;28;22672;-69
2023/07/10 08:14:49;;;;;;;5.63;4.50;;;;;;;;;;5038394;28;20202;-65
2023/07/10 08:17:16;;;;;;;5.38;4.55;;;;;;;;;;5029944;28;20878;-66
2023/07/10 08:19:43;;;;;;;5.40;4.20;;;;;;;;;;5032339;28;20206;-68
2023/07/10 08:22:11;;;;;;;5.93;4.80;;;;;;;;;;5048642;28;20563;-66
2023/07/10 08:24:38;;;;;;;4.95;4.30;;;;;;;;;;5042386;28;20240;-66
2023/07/10 08:27:06;;;;;;;5.95;4.57;;;;;;;;;;5031983;28;20602;-68
2023/07/10 08:29:36;;;;;;;6.22;4.75;;;;;;;;;;5035063;28;20223;-65
2023/07/10 08:32:03;;;;;;;4.70;4.20;;;;;;;;;;5037689;28;20202;-65
2023/07/10 08:34:31;;;;;;;7.20;4.60;;;;;;;;;;5029428;28;20651;-66
2023/07/10 08:36:59;;;;;;;5.15;4.07;;;;;;;;;;5032358;28;20473;-64
2023/07/10 08:39:26;;;;;;;5.15;4.65;;;;;;;;;;5037982;28;20207;-67
2023/07/10 08:42:02;;;;;;;6.47;4.70;;;;;;;;;;5035456;28;20604;-67
2023/07/10 08:44:32;;;;;;;6.55;4.80;;;;;;;;;;5028441;28;20798;-66
2023/07/10 08:47:01;;;;;;;5.07;4.57;;;;;;;;;;5034767;28;20222;-65
2023/07/10 08:49:38;;;;;;;6.75;4.45;;;;;;;;;;5044365;28;20202;-66
2023/07/10 08:52:10;;;;;;;5.53;4.70;;;;;;;;;;5040283;28;20258;-66
2023/07/10 08:54:38;;;;;;;5.63;4.80;;;;;;;;;;5036220;28;20214;-67
2023/07/10 08:57:08;;;;;;;6.05;4.75;;;;;;;;;;5040355;28;20683;-65
2023/07/10 08:59:50;;;;;;;8.40;4.63;;;;;;;;;;5029637;28;20199;-65
2023/07/10 09:02:43;;;;;;;6.35;4.65;;;;;;;;;;5040599;28;20269;-61
2023/07/10 09:05:20;;;;;;;6.47;4.68;;;;;;;;;;5040609;28;20305;-65
2023/07/10 09:07:48;;;;;;;6.88;4.72;;;;;;;;;;5046868;28;20206;-64
2023/07/10 09:10:18;;;;;;;6.43;4.50;;;;;;;;;;5040128;28;20298;-65
2023/07/10 09:12:51;;;;;;;5.82;4.40;;;;;;;;;;5036116;28;20203;-66
2023/07/10 09:15:26;;;;;;;5.20;4.25;;;;;;;;;;5048315;28;20249;-66
2023/07/10 09:17:58;;;;;;;6.10;4.63;;;;;;;;;;5037787;28;20233;-66
2023/07/10 09:20:26;;;;;;;5.25;4.55;;;;;;;;;;5032271;28;20298;-65
2023/07/10 09:23:01;;;;;;;5.53;4.60;;;;;;;;;;5039897;28;20217;-65
2023/07/10 09:25:29;;;;;;;4.78;4.30;;;;;;;;;;5037314;28;20233;-65
2023/07/10 09:27:56;;;;;;;4.57;4.18;;;;;;;;;;5038742;28;20305;-66
2023/07/10 09:30:26;;;;;;;5.30;4.38;;;;;;;;;;5032681;28;20583;-65
2023/07/10 09:33:04;;;;;;;6.07;3.72;;;;;;;;;;5052889;28;20210;-63
2023/07/10 09:35:34;;;;;;;5.93;4.03;;;;;;;;;;5036286;28;20923;-65
2023/07/10 09:38:02;;;;;;;4.65;4.15;;;;;;;;;;5040732;28;20237;-67
2023/07/10 09:40:35;;;;;;;4.55;3.85;;;;;;;;;;5048462;28;20206;-65
2023/07/10 09:43:03;;;;;;;4.95;4.00;;;;;;;;;;5034845;28;20206;-65
2023/07/10 09:45:41;;;;;;;4.28;3.88;;;;;;;;;;5043392;28;20218;-65
2023/07/10 09:48:14;;;;;;;5.07;3.67;;;;;;;;;;5049931;28;20251;-63
2023/07/10 09:50:44;;;;;;;4.18;3.78;;;;;;;;;;5044251;28;20660;-65
2023/07/10 09:53:22;;;;;;;4.53;4.13;;;;;;;;;;5042330;28;20633;-65
2023/07/10 09:55:49;;;;;;;4.88;3.80;;;;;;;;;;5030462;28;20233;-66
2023/07/10 09:58:17;;;;;;;4.55;3.80;;;;;;;;;;5034284;28;20287;-65
2023/07/10 10:00:48;;;;;;;5.85;4.18;;;;;;;;;;5035382;28;20679;-66
2023/07/10 10:03:21;;;;;;;10.02;7.07;;;;;;;;;;5041769;28;20548;-65
2023/07/10 10:05:54;;;;;;;5.13;4.50;;;;;;;;;;5040926;28;20226;-64
2023/07/10 10:08:25;;;;;;;4.15;3.60;;;;;;;;;;5041830;28;20210;-66
2023/07/10 10:11:00;;;;;;;9.18;7.18;;;;;;;;;;5033859;28;20206;-66
2023/07/10 10:13:29;;;;;;;6.70;4.10;;;;;;;;;;5036372;28;20205;-67
2023/07/10 10:16:14;;;;;;;4.43;3.83;;;;;;;;;;5042651;28;20601;-67
2023/07/10 10:18:47;;;;;;;4.25;3.85;;;;;;;;;;5035529;28;20906;-63
2023/07/10 10:21:16;;;;;;;5.10;4.22;;;;;;;;;;5029634;28;20349;-66
2023/07/10 10:23:45;;;;;;;4.10;3.60;;;;;;;;;;5036318;28;20294;-65
2023/07/10 10:26:20;;;;;;;4.30;3.80;;;;;;;;;;5037191;28;20237;-64
2023/07/10 10:28:50;;;;;;;6.13;4.18;;;;;;;;;;5037808;28;20898;-64
2023/07/10 10:31:20;;;;;;;7.70;4.53;;;;;;;;;;5038695;28;21028;-66
2023/07/10 10:34:00;;;;;;;6.43;4.70;;;;;;;;;;5035703;28;20202;-66
2023/07/10 10:36:33;;;;;;;5.40;4.20;;;;;;;;;;5029731;28;20241;-64
2023/07/10 10:39:21;;;;;;;8.55;4.63;;;;;;;;;;5036047;28;20793;-66
2023/07/10 10:41:57;;;;;;;5.82;4.28;;;;;;;;;;5039328;28;20366;-64
2023/07/10 10:44:24;;;;;;;6.65;4.72;;;;;;;;;;5034023;28;20322;-66
2023/07/10 10:47:04;;;;;;;5.05;4.45;;;;;;;;;;5041161;28;20687;-65
2023/07/10 10:49:41;;;;;;;8.07;4.88;;;;;;;;;;5041223;28;20206;-64
2023/07/10 10:52:12;;;;;;;5.00;4.10;;;;;;;;;;5041245;28;20622;-68
2023/07/10 10:54:48;;;;;;;8.10;4.88;;;;;;;;;;5041995;28;20222;-65
2023/07/10 10:57:24;;;;;;;6.95;4.28;;;;;;;;;;5029184;28;20312;-64
2023/07/10 11:00:07;;;;;;;5.10;4.20;;;;;;;;;;5021229;28;20280;-64
2023/07/10 11:02:49;;;;;;;7.15;4.40;;;;;;;;;;5019850;28;20247;-64
2023/07/10 11:05:26;;;;;;;4.53;3.85;;;;;;;;;;5024005;28;20345;-64
2023/07/10 11:07:56;;;;;;;5.05;4.05;;;;;;;;;;5031109;28;20558;-64
2023/07/10 11:10:31;;;;;;;6.40;3.90;;;;;;;;;;5030036;28;20215;-65
2023/07/10 11:12:59;;;;;;;5.15;4.03;;;;;;;;;;5041314;28;20652;-64
2023/07/10 11:15:26;;;;;;;5.50;4.38;;;;;;;;;;5026210;28;20227;-66
2023/07/10 11:17:55;;;;;;;5.50;4.72;;;;;;;;;;5029500;28;20251;-63
2023/07/10 11:20:23;;;;;;;6.25;4.43;;;;;;;;;;5039373;28;20209;-67
2023/07/10 11:22:59;;;;;;;5.28;3.83;;;;;;;;;;5043086;28;20235;-64
2023/07/10 11:25:38;;;;;;;3.88;3.45;;;;;;;;;;5044971;28;20225;-64
2023/07/10 11:28:22;;;;;;;4.32;3.92;;;;;;;;;;5043420;28;20413;-65
2023/07/10 11:31:11;;;;;;;4.63;4.22;;;;;;;;;;5042634;28;20263;-65
2023/07/10 11:33:38;;;;;;;4.03;3.63;;;;;;;;;;5035217;28;20221;-64
2023/07/10 11:36:17;;;;;;;5.15;3.58;;;;;;;;;;5045223;28;20221;-65
2023/07/10 11:38:57;;;;;;;4.32;3.67;;;;;;;;;;5038095;28;20595;-64
2023/07/10 11:41:27;;;;;;;7.53;4.22;;;;;;;;;;5032025;28;20198;-64
2023/07/10 11:43:55;;;;;;;5.57;3.53;;;;;;;;;;5040046;28;20190;-64
2023/07/10 11:46:26;;;;;;;4.47;3.70;;;;;;;;;;5033984;28;20629;-65
2023/07/10 11:49:02;;;;;;;6.70;4.00;;;;;;;;;;5036699;28;20238;-65
2023/07/10 11:51:33;;;;;;;4.47;3.95;;;;;;;;;;5040803;28;20255;-64
2023/07/10 11:54:06;;;;;;;4.38;3.95;;;;;;;;;;5045692;28;20206;-64
2023/07/10 11:56:33;;;;;;;4.78;4.20;;;;;;;;;;5039018;28;20711;-64
2023/07/10 11:59:14;;;;;;;4.47;4.07;;;;;;;;;;5038345;28;20695;-65
2023/07/10 12:01:42;;;;;;;5.50;3.92;;;;;;;;;;5030688;28;20206;-66
2023/07/10 12:04:14;;;;;;;4.65;4.05;;;;;;;;;;5036241;28;20206;-65
2023/07/10 12:06:44;;;;;;;4.60;4.20;;;;;;;;;;5045592;28;20242;-66
2023/07/10 12:09:11;;;;;;;6.70;4.30;;;;;;;;;;5038076;28;20663;-64
2023/07/10 12:11:39;;;;;;;5.38;3.85;;;;;;;;;;5033879;28;20198;-64
2023/07/10 12:14:11;;;;;;;6.05;3.70;;;;;;;;;;5032190;28;20731;-65
2023/07/10 12:16:44;;;;;;;5.32;4.05;;;;;;;;;;5047092;28;20674;-65
2023/07/10 12:19:17;;;;;;;3.90;3.60;;;;;;;;;;5032842;28;20258;-64
2023/07/10 12:21:46;;;;;;;5.10;3.90;;;;;;;;;;5041145;28;20211;-63
2023/07/10 12:24:16;;;;;;;5.88;4.28;;;;;;;;;;5036499;28;20199;-65
2023/07/10 12:26:44;;;;;;;4.25;3.90;;;;;;;;;;5039720;28;20241;-67
2023/07/10 12:29:31;;;;;;;5.07;3.58;;;;;;;;;;5053729;28;20654;-63
2023/07/10 12:31:58;;;;;;;6.97;4.22;;;;;;;;;;5036113;28;20214;-64
2023/07/10 12:34:32;;;;;;;5.03;4.00;;;;;;;;;;5043482;28;20207;-65
2023/07/10 12:37:00;;;;;;;6.28;4.50;;;;;;;;;;5044730;28;20319;-64
2023/07/10 12:39:27;;;;;;;6.40;4.18;;;;;;;;;;5043164;28;20225;-65
2023/07/10 12:41:56;;;;;;;6.15;3.92;;;;;;;;;;5038158;28;20206;-66
2023/07/10 12:44:31;;;;;;;4.25;3.60;;;;;;;;;;5050597;28;20216;-65
2023/07/10 12:47:07;;;;;;;7.32;3.80;;;;;;;;;;5039482;28;20225;-63
2023/07/10 12:49:35;;;;;;;4.22;3.80;;;;;;;;;;5052978;28;20466;-64
2023/07/10 12:52:07;;;;;;;5.80;3.75;;;;;;;;;;5042253;28;20213;-63
2023/07/10 12:54:46;;;;;;;6.65;3.70;;;;;;;;;;5059142;28;20239;-64
2023/07/10 12:57:22;;;;;;;5.22;3.75;;;;;;;;;;5043456;28;20221;-64
2023/07/10 12:59:55;;;;;;;4.28;3.78;;;;;;;;;;5040856;28;20695;-68
2023/07/10 13:02:24;;;;;;;4.18;3.78;;;;;;;;;;5036254;28;20195;-70
2023/07/10 13:04:59;;;;;;;4.00;3.70;;;;;;;;;;5036259;28;20833;-65
2023/07/10 13:07:39;;;;;;;3.95;3.30;;;;;;;;;;5029172;28;20208;-65
2023/07/10 13:10:26;;;;;;;4.72;3.92;;;;;;;;;;5046711;28;20225;-66
2023/07/10 13:12:55;;;;;;;3.90;3.50;;;;;;;;;;5034999;28;20210;-64
2023/07/10 13:15:27;;;;;;;3.95;3.55;;;;;;;;;;5050196;28;20687;-70
2023/07/10 13:17:55;;;;;;;4.95;3.90;;;;;;;;;;5041266;28;20203;-64
2023/07/10 13:20:24;;;;;;;4.93;3.72;;;;;;;;;;5056034;28;20210;-66
2023/07/10 13:22:52;;;;;;;3.90;3.55;;;;;;;;;;5044742;28;20587;-65
2023/07/10 13:25:19;;;;;;;4.22;3.58;;;;;;;;;;5036650;28;20245;-68
2023/07/10 13:27:47;;;;;;;6.38;3.83;;;;;;;;;;5034909;28;20349;-66
2023/07/10 13:30:16;;;;;;;3.70;3.40;;;;;;;;;;5034444;28;20206;-64
2023/07/10 13:32:44;;;;;;;4.75;3.70;;;;;;;;;;5041010;28;20721;-72
2023/07/10 13:35:11;;;;;;;5.10;3.97;;;;;;;;;;5028618;28;20253;-67
2023/07/10 13:37:39;;;;;;;4.75;3.47;;;;;;;;;;5032862;28;20211;-66
2023/07/10 13:40:11;;;;;;;3.50;3.20;;;;;;;;;;5042666;28;20224;-69
2023/07/10 13:42:38;;;;;;;4.35;3.55;;;;;;;;;;5029274;28;20656;-63
2023/07/10 13:45:06;;;;;;;3.58;3.20;;;;;;;;;;5052606;28;20227;-64
2023/07/10 13:47:34;;;;;;;3.75;3.20;;;;;;;;;;5035522;28;20211;-67
2023/07/10 13:50:02;;;;;;;3.78;3.13;;;;;;;;;;5045505;28;20252;-64
2023/07/10 13:52:30;;;;;;;4.57;3.53;;;;;;;;;;5034197;28;20209;-64
2023/07/10 13:54:58;;;;;;;3.75;3.42;;;;;;;;;;5041703;28;20218;-70
2023/07/10 13:57:27;;;;;;;4.05;3.60;;;;;;;;;;5046309;28;20234;-65
2023/07/10 13:59:58;;;;;;;5.38;3.30;;;;;;;;;;5042246;28;20214;-67
2023/07/10 14:02:26;;;;;;;4.32;3.25;;;;;;;;;;5037937;28;20570;-63
2023/07/10 14:04:57;;;;;;;5.15;3.15;;;;;;;;;;5032217;28;20636;-67
2023/07/10 14:07:25;;;;;;;5.65;3.30;;;;;;;;;;5032324;28;20218;-63
2023/07/10 14:09:58;;;;;;;4.85;3.35;;;;;;;;;;5044113;28;20243;-63
2023/07/10 14:12:27;;;;;;;3.85;3.42;;;;;;;;;;5037830;28;20195;-65
2023/07/10 14:15:01;;;;;;;3.60;3.00;;;;;;;;;;5034917;28;20214;-63
2023/07/10 14:17:31;;;;;;;3.72;3.33;;;;;;;;;;5045949;28;20209;-70
2023/07/10 14:19:59;;;;;;;4.50;3.78;;;;;;;;;;5039240;28;20219;-65
2023/07/10 14:22:26;;;;;;;4.38;3.50;;;;;;;;;;5039004;28;20264;-67
2023/07/10 14:24:54;;;;;;;3.72;3.30;;;;;;;;;;5039618;28;20213;-68
2023/07/10 14:27:22;;;;;;;3.45;3.15;;;;;;;;;;5037829;28;20241;-66
2023/07/10 14:29:51;;;;;;;4.15;3.08;;;;;;;;;;5038162;28;20709;-63
2023/07/10 14:32:20;;;;;;;3.53;3.25;;;;;;;;;;5032126;28;20211;-70
2023/07/10 14:34:48;;;;;;;4.10;3.58;;;;;;;;;;5034645;28;20372;-65
2023/07/10 14:37:17;;;;;;;5.03;3.65;;;;;;;;;;5041910;28;20206;-67
2023/07/10 14:39:45;;;;;;;5.03;3.40;;;;;;;;;;5033456;28;20280;-66
2023/07/10 14:42:14;;;;;;;4.13;3.53;;;;;;;;;;5033381;28;20215;-69
2023/07/10 14:44:45;;;;;;;3.90;3.50;;;;;;;;;;5040690;28;20529;-65
2023/07/10 14:47:21;;;;;;;5.05;4.07;;;;;;;;;;5041945;28;20263;-65
2023/07/10 14:49:48;;;;;;;4.45;3.75;;;;;;;;;;5040982;28;22443;-70
2023/07/10 14:52:18;;;;;;;4.43;3.53;;;;;;;;;;5046218;28;20663;-65
2023/07/10 14:54:45;;;;;;;6.22;4.10;;;;;;;;;;5036559;28;20264;-63
2023/07/10 14:57:20;;;;;;;6.10;4.13;;;;;;;;;;5036895;28;20815;-65
2023/07/10 14:59:48;;;;;;;4.13;3.63;;;;;;;;;;5042283;28;20256;-63